Terminal Aerodrome Forecast
Issued by NWS

Home | Current Version | Previous Version | Text Only | Print | Product List | Glossary On
Versions: 1 2 3 4 5 6 7 8 9 10 11 12 13 14
000
FTPA31 PHFO 281126
TAFHOG
TAF
PHOG 281126Z 2812/2912 04015KT P6SM FEW045
     FM281900 05026G32KT P6SM FEW030 SCT045
     FM290600 05014G20KT P6SM FEW045=

USA.gov is the U.S. government's official web portal to all federal, state and local government web resources and services.